Wetterdaten: Woche 19.08.19 - 25.08.19 (KW34)
Datum Zeit Temp. Aussen Temp. o. S. +5cm Feuchte Auss Luftdruck Regen Sonnenschein Regendauer Solar Windben Empfang
19.08.2019 00:00 16,0 C 14,6 C 14,0 C 88 % 1016,2 hPa 0,0 l/m 0,00 h 0,00 h 0 W/m 5,5 km/h (1 Bft) 99,11 %
19.08.2019 01:00 15,3 C 14,3 C 13,5 C 86 % 1016,3 hPa 0,0 l/m 0,00 h 0,00 h 0 W/m 8,9 km/h (2 Bft) 97,22 %
19.08.2019 02:00 14,8 C 13,9 C 13,3 C 84 % 1016,8 hPa 0,0 l/m 0,00 h 0,00 h 0 W/m 11,8 km/h (2 Bft) 98,08 %
19.08.2019 03:00 14,4 C 13,5 C 13,1 C 84 % 1016,7 hPa 0,0 l/m 0,00 h 0,00 h 0 W/m 12,5 km/h (3 Bft) 96,58 %
19.08.2019 04:00 14,2 C 13,2 C 12,8 C 86 % 1016,4 hPa 0,0 l/m 0,00 h 0,00 h 0 W/m 15,4 km/h (3 Bft) 97,22 %
19.08.2019 05:00 13,8 C 12,8 C 12,3 C 88 % 1016,2 hPa 0,0 l/m 0,00 h 0,00 h 0 W/m 12,8 km/h (3 Bft) 99,29 %
19.08.2019 06:00 13,4 C 12,5 C 12,2 C 90 % 1015,9 hPa 0,0 l/m 0,00 h 0,00 h 10 W/m 12,0 km/h (2 Bft) 96,61 %
19.08.2019 07:00 13,4 C 13,2 C 12,6 C 91 % 1015,1 hPa 0,0 l/m 0,00 h 0,00 h 28 W/m 13,7 km/h (3 Bft) 95,94 %
19.08.2019 08:00 14,5 C 15,2 C 14,1 C 90 % 1014,5 hPa 0,0 l/m 0,10 h 0,00 h 87 W/m 16,3 km/h (3 Bft) 99,38 %
19.08.2019 09:00 17,0 C 20,4 C 18,9 C 83 % 1015,1 hPa 0,0 l/m 1,00 h 0,00 h 412 W/m 17,2 km/h (3 Bft) 96,70 %
19.08.2019 10:00 18,5 C 21,0 C 20,8 C 76 % 1015,4 hPa 0,0 l/m 0,60 h 0,00 h 418 W/m 17,6 km/h (3 Bft) 95,67 %
19.08.2019 11:00 18,8 C 21,0 C 19,2 C 74 % 1015,4 hPa 0,0 l/m 0,30 h 0,00 h 282 W/m 13,9 km/h (3 Bft) 99,47 %
19.08.2019 12:00 20,0 C 22,4 C 19,9 C 69 % 1015,3 hPa 0,0 l/m 0,27 h 0,00 h 402 W/m 14,8 km/h (3 Bft) 96,71 %
19.08.2019 13:00 21,7 C 25,3 C 22,4 C 62 % 1015,3 hPa 0,0 l/m 0,73 h 0,00 h 692 W/m 16,8 km/h (3 Bft) 98,08 %
19.08.2019 14:00 22,8 C 26,0 C 23,9 C 58 % 1015,4 hPa 0,0 l/m 0,77 h 0,00 h 751 W/m 19,2 km/h (3 Bft) 96,45 %
19.08.2019 15:00 23,2 C 25,8 C 22,7 C 55 % 1015,4 hPa 0,0 l/m 0,70 h 0,00 h 659 W/m 18,7 km/h (3 Bft) 98,58 %
19.08.2019 16:00 23,5 C 25,7 C 23,0 C 55 % 1015,5 hPa 0,0 l/m 0,57 h 0,00 h 514 W/m 14,6 km/h (3 Bft) 98,29 %
19.08.2019 17:00 23,5 C 25,8 C 22,8 C 55 % 1016,9 hPa 0,0 l/m 0,77 h 0,00 h 444 W/m 12,5 km/h (3 Bft) 96,27 %
19.08.2019 18:00 23,3 C 24,2 C 21,6 C 54 % 1016,9 hPa 0,0 l/m 0,73 h 0,00 h 281 W/m 12,8 km/h (3 Bft) 98,53 %
19.08.2019 19:00 22,1 C 21,0 C 20,2 C 58 % 1017,1 hPa 0,0 l/m 0,13 h 0,00 h 75 W/m 9,4 km/h (2 Bft) 97,06 %
19.08.2019 20:00 20,3 C 18,2 C 17,9 C 66 % 1017,6 hPa 0,0 l/m 0,00 h 0,00 h 17 W/m 5,0 km/h (1 Bft) 97,35 %
19.08.2019 21:00 18,8 C 16,9 C 16,3 C 72 % 1018,3 hPa 0,0 l/m 0,00 h 0,13 h 0 W/m 5,0 km/h (1 Bft) 99,22 %
19.08.2019 22:00 17,7 C 15,5 C 15,0 C 77 % 1018,7 hPa 0,0 l/m 0,00 h 0,00 h 0 W/m 2,9 km/h (1 Bft) 96,73 %
19.08.2019 23:00 16,5 C 15,5 C 15,0 C 80 % 1019,3 hPa 0,0 l/m 0,00 h 0,00 h 0 W/m 7,2 km/h (2 Bft) 96,01 %
20.08.2019 00:00 16,0 C 14,8 C 14,6 C 82 % 1020,0 hPa 0,0 l/m 0,00 h 0,00 h 0 W/m 6,4 km/h (2 Bft) 96,27 %
20.08.2019 01:00 15,5 C 14,3 C 14,2 C 83 % 1020,7 hPa 0,0 l/m 0,00 h 0,00 h 0 W/m 5,6 km/h (1 Bft) 97,01 %
20.08.2019 02:00 14,8 C 13,4 C 13,2 C 83 % 1021,0 hPa 0,0 l/m 0,00 h 0,00 h 0 W/m 4,3 km/h (1 Bft) 96,51 %
20.08.2019 03:00 14,0 C 12,8 C 12,6 C 84 % 1021,3 hPa 0,0 l/m 0,00 h 0,00 h 0 W/m 4,1 km/h (1 Bft) 97,79 %
20.08.2019 04:00 13,5 C 12,3 C 12,0 C 85 % 1021,7 hPa 0,0 l/m 0,00 h 0,00 h 0 W/m 4,4 km/h (1 Bft) 96,91 %
20.08.2019 05:00 13,0 C 11,9 C 11,7 C 87 % 1021,8 hPa 0,0 l/m 0,00 h 0,00 h 0 W/m 6,0 km/h (2 Bft) 98,79 %
20.08.2019 06:00 12,6 C 11,7 C 11,7 C 89 % 1021,7 hPa 0,0 l/m 0,00 h 0,00 h 12 W/m 8,0 km/h (2 Bft) 97,01 %
20.08.2019 07:00 12,5 C 12,2 C 11,9 C 90 % 1021,5 hPa 0,0 l/m 0,00 h 0,00 h 30 W/m 6,9 km/h (2 Bft) 96,04 %
20.08.2019 08:00 13,5 C 14,4 C 13,4 C 91 % 1021,9 hPa 0,0 l/m 0,10 h 0,00 h 85 W/m 11,1 km/h (2 Bft) 99,04 %
20.08.2019 09:00 16,2 C 20,3 C 18,5 C 86 % 1022,1 hPa 0,0 l/m 1,00 h 0,00 h 389 W/m 11,0 km/h (2 Bft) 96,58 %
20.08.2019 10:00 18,7 C 22,4 C 22,1 C 78 % 1022,4 hPa 0,0 l/m 1,00 h 0,00 h 520 W/m 9,8 km/h (2 Bft) 95,59 %
20.08.2019 11:00 19,5 C 22,8 C 20,6 C 71 % 1022,7 hPa 0,0 l/m 1,00 h 0,00 h 529 W/m 10,7 km/h (2 Bft) 99,65 %
20.08.2019 12:00 21,1 C 25,5 C 21,2 C 63 % 1022,7 hPa 0,0 l/m 1,00 h 0,00 h 766 W/m 14,0 km/h (3 Bft) 96,94 %
20.08.2019 13:00 22,4 C 25,1 C 21,8 C 60 % 1022,7 hPa 0,0 l/m 0,50 h 0,00 h 537 W/m 10,1 km/h (2 Bft) 98,43 %
20.08.2019 14:00 21,6 C 23,5 C 21,9 C 60 % 1022,8 hPa 0,0 l/m 0,50 h 0,00 h 480 W/m 10,8 km/h (2 Bft) 96,72 %
20.08.2019 15:00 22,7 C 26,8 C 22,6 C 56 % 1022,8 hPa 0,0 l/m 0,97 h 0,00 h 692 W/m 13,8 km/h (3 Bft) 97,21 %
20.08.2019 16:00 23,3 C 24,8 C 22,5 C 53 % 1022,8 hPa 0,0 l/m 0,50 h 0,00 h 397 W/m 11,3 km/h (2 Bft) 98,65 %
20.08.2019 17:00 22,5 C 23,7 C 21,6 C 55 % 1023,0 hPa 0,0 l/m 0,53 h 0,00 h 298 W/m 8,9 km/h (2 Bft) 96,78 %
20.08.2019 18:00 22,2 C 21,2 C 20,2 C 57 % 1023,3 hPa 0,0 l/m 0,13 h 0,00 h 96 W/m 8,9 km/h (2 Bft) 97,77 %
20.08.2019 19:00 19,4 C 18,1 C 17,7 C 68 % 1024,1 hPa 0,0 l/m 0,17 h 0,00 h 72 W/m 7,9 km/h (2 Bft) 97,43 %
20.08.2019 20:00 18,0 C 15,6 C 15,3 C 74 % 1024,6 hPa 0,0 l/m 0,00 h 0,00 h 19 W/m 0,8 km/h (0 Bft) 97,17 %
20.08.2019 21:00 16,4 C 13,5 C 13,2 C 78 % 1025,4 hPa 0,0 l/m 0,00 h 0,00 h 0 W/m 0,0 km/h (0 Bft) 98,72 %
20.08.2019 22:00 15,0 C 12,5 C 12,3 C 82 % 1025,8 hPa 0,0 l/m 0,00 h 0,00 h 0 W/m 0,0 km/h (0 Bft) 98,86 %
20.08.2019 23:00 14,0 C 12,4 C 12,2 C 86 % 1026,3 hPa 0,0 l/m 0,00 h 0,00 h 0 W/m 0,0 km/h (0 Bft) 94,38 %
21.08.2019 00:00 13,7 C 12,6 C 12,1 C 89 % 1026,6 hPa 0,0 l/m 0,00 h 0,00 h 0 W/m 0,0 km/h (0 Bft) 98,99 %
21.08.2019 01:00 13,5 C 12,2 C 11,9 C 90 % 1026,9 hPa 0,0 l/m 0,00 h 0,00 h 0 W/m 0,0 km/h (0 Bft) 97,65 %
21.08.2019 02:00 13,2 C 11,3 C 11,1 C 91 % 1027,1 hPa 0,0 l/m 0,00 h 0,00 h 0 W/m 0,0 km/h (0 Bft) 97,36 %
21.08.2019 03:00 12,3 C 10,5 C 10,1 C 90 % 1027,3 hPa 0,0 l/m 0,00 h 0,00 h 0 W/m 0,0 km/h (0 Bft) 95,80 %
21.08.2019 04:00 11,6 C 9,7 C 9,7 C 91 % 1027,5 hPa 0,0 l/m 0,00 h 0,00 h 0 W/m 0,0 km/h (0 Bft) 98,72 %
21.08.2019 05:00 11,0 C 9,0 C 9,0 C 91 % 1027,6 hPa 0,0 l/m 0,00 h 0,00 h 0 W/m 0,0 km/h (0 Bft) 95,87 %
21.08.2019 06:00 10,3 C 8,4 C 8,4 C 91 % 1028,1 hPa 0,0 l/m 0,00 h 0,00 h 8 W/m 0,0 km/h (0 Bft) 99,00 %
21.08.2019 07:00 10,1 C 9,4 C 9,2 C 92 % 1028,5 hPa 0,0 l/m 0,00 h 0,00 h 26 W/m 0,0 km/h (0 Bft) 97,01 %
21.08.2019 08:00 11,1 C 13,2 C 11,4 C 95 % 1028,9 hPa 0,0 l/m 0,13 h 0,00 h 82 W/m 0,2 km/h (0 Bft) 96,44 %
21.08.2019 09:00 14,6 C 22,3 C 19,9 C 95 % 1029,0 hPa 0,0 l/m 1,00 h 0,00 h 398 W/m 0,3 km/h (0 Bft) 99,22 %
21.08.2019 10:00 19,3 C 25,4 C 25,9 C 73 % 1029,0 hPa 0,0 l/m 1,00 h 0,00 h 577 W/m 3,1 km/h (1 Bft) 97,01 %
21.08.2019 11:00 21,6 C 27,6 C 23,0 C 64 % 1028,9 hPa 0,0 l/m 0,97 h 0,00 h 710 W/m 4,4 km/h (1 Bft) 97,65 %
21.08.2019 12:00 22,0 C 25,5 C 20,9 C 59 % 1028,7 hPa 0,0 l/m 0,67 h 0,00 h 554 W/m 5,4 km/h (1 Bft) 97,49 %
21.08.2019 13:00 23,0 C 28,4 C 23,6 C 56 % 1028,3 hPa 0,0 l/m 0,90 h 0,00 h 820 W/m 8,8 km/h (2 Bft) 96,58 %
21.08.2019 14:00 24,0 C 28,2 C 25,6 C 52 % 1027,8 hPa 0,0 l/m 0,83 h 0,00 h 702 W/m 6,9 km/h (2 Bft) 98,79 %
21.08.2019 15:00 24,0 C 28,7 C 23,0 C 52 % 1027,5 hPa 0,0 l/m 0,87 h 0,00 h 671 W/m 5,2 km/h (1 Bft) 96,58 %
21.08.2019 16:00 24,4 C 28,5 C 24,3 C 49 % 1027,2 hPa 0,0 l/m 1,00 h 0,00 h 631 W/m 7,0 km/h (2 Bft) 98,01 %
21.08.2019 17:00 24,4 C 27,0 C 23,1 C 49 % 1026,9 hPa 0,0 l/m 1,00 h 0,00 h 403 W/m 3,9 km/h (1 Bft) 97,72 %
21.08.2019 18:00 23,8 C 24,3 C 21,3 C 48 % 1026,6 hPa 0,0 l/m 0,83 h 0,00 h 219 W/m 2,8 km/h (1 Bft) 96,24 %
21.08.2019 19:00 22,7 C 21,4 C 19,5 C 52 % 1026,2 hPa 0,0 l/m 0,00 h 0,00 h 72 W/m 0,9 km/h (0 Bft) 98,36 %
21.08.2019 20:00 21,0 C 17,9 C 16,6 C 60 % 1026,3 hPa 0,0 l/m 0,00 h 0,00 h 18 W/m 0,0 km/h (0 Bft) 97,37 %
21.08.2019 21:00 18,5 C 15,8 C 14,9 C 66 % 1026,6 hPa 0,0 l/m 0,00 h 0,00 h 0 W/m 0,1 km/h (0 Bft) 95,80 %
21.08.2019 22:00 16,9 C 14,3 C 13,6 C 70 % 1026,6 hPa 0,0 l/m 0,00 h 0,00 h 0 W/m 0,0 km/h (0 Bft) 99,71 %
21.08.2019 23:00 15,4 C 12,7 C 12,4 C 76 % 1026,7 hPa 0,0 l/m 0,00 h 0,00 h 0 W/m 0,0 km/h (0 Bft) 98,43 %
22.08.2019 00:00 14,1 C 12,0 C 11,5 C 78 % 1026,4 hPa 0,0 l/m 0,00 h 0,00 h 0 W/m 0,0 km/h (0 Bft) 95,73 %
22.08.2019 01:00 13,1 C 11,1 C 10,8 C 80 % 1026,2 hPa 0,0 l/m 0,00 h 0,00 h 0 W/m 0,0 km/h (0 Bft) 96,58 %
22.08.2019 02:00 12,3 C 10,6 C 10,3 C 84 % 1025,9 hPa 0,0 l/m 0,00 h 0,00 h 0 W/m 0,0 km/h (0 Bft) 99,29 %
22.08.2019 03:00 11,8 C 10,9 C 10,2 C 87 % 1025,7 hPa 0,0 l/m 0,00 h 0,00 h 0 W/m 0,5 km/h (0 Bft) 97,36 %
22.08.2019 04:00 12,6 C 12,8 C 12,3 C 88 % 1025,6 hPa 0,0 l/m 0,00 h 0,00 h 0 W/m 4,9 km/h (1 Bft) 98,18 %
22.08.2019 05:00 13,3 C 12,4 C 12,2 C 84 % 1025,5 hPa 0,0 l/m 0,00 h 0,00 h 0 W/m 4,7 km/h (1 Bft) 95,94 %
22.08.2019 06:00 13,1 C 12,2 C 12,0 C 84 % 1025,4 hPa 0,0 l/m 0,00 h 0,00 h 9 W/m 9,1 km/h (2 Bft) 98,01 %
22.08.2019 07:00 13,1 C 12,7 C 12,4 C 84 % 1025,5 hPa 0,0 l/m 0,00 h 0,00 h 23 W/m 12,7 km/h (3 Bft) 97,43 %
22.08.2019 08:00 14,3 C 15,1 C 13,8 C 83 % 1025,8 hPa 0,0 l/m 0,17 h 0,00 h 87 W/m 14,0 km/h (3 Bft) 97,15 %
22.08.2019 09:00 17,6 C 22,2 C 21,1 C 74 % 1026,1 hPa 0,0 l/m 1,00 h 0,00 h 407 W/m 12,2 km/h (3 Bft) 97,34 %
22.08.2019 10:00 21,2 C 26,1 C 27,6 C 65 % 1026,2 hPa 0,0 l/m 1,00 h 0,00 h 583 W/m 10,7 km/h (2 Bft) 99,43 %
22.08.2019 11:00 24,1 C 29,2 C 26,1 C 57 % 1026,0 hPa 0,0 l/m 1,00 h 0,00 h 719 W/m 12,0 km/h (2 Bft) 96,01 %
22.08.2019 12:00 25,9 C 30,7 C 24,9 C 48 % 1025,7 hPa 0,0 l/m 1,00 h 0,00 h 810 W/m 12,9 km/h (3 Bft) 96,76 %
22.08.2019 13:00 27,3 C 32,6 C 27,2 C 46 % 1025,4 hPa 0,0 l/m 1,00 h 0,00 h 853 W/m 9,4 km/h (2 Bft) 99,86 %
22.08.2019 14:00 27,9 C 32,7 C 29,5 C 44 % 1025,1 hPa 0,0 l/m 1,00 h 0,00 h 840 W/m 10,3 km/h (2 Bft) 97,08 %
22.08.2019 15:00 27,9 C 32,3 C 26,7 C 45 % 1024,8 hPa 0,0 l/m 1,00 h 0,00 h 766 W/m 11,9 km/h (2 Bft) 96,23 %
22.08.2019 16:00 28,1 C 31,8 C 27,8 C 44 % 1024,4 hPa 0,0 l/m 1,00 h 0,00 h 638 W/m 9,3 km/h (2 Bft) 99,65 %
22.08.2019 17:00 28,2 C 31,1 C 26,9 C 44 % 1024,3 hPa 0,0 l/m 1,00 h 0,00 h 482 W/m 8,7 km/h (2 Bft) 96,37 %
22.08.2019 18:00 28,0 C 28,7 C 25,0 C 44 % 1024,1 hPa 0,0 l/m 0,77 h 0,00 h 254 W/m 5,7 km/h (1 Bft) 98,67 %
22.08.2019 19:00 26,0 C 23,7 C 22,4 C 51 % 1024,3 hPa 0,0 l/m 0,00 h 0,00 h 45 W/m 1,5 km/h (1 Bft) 96,72 %
22.08.2019 20:00 23,6 C 20,7 C 19,3 C 57 % 1024,5 hPa 0,0 l/m 0,00 h 0,00 h 15 W/m 0,0 km/h (0 Bft) 97,58 %
22.08.2019 21:00 20,9 C 17,8 C 16,6 C 65 % 1025,0 hPa 0,0 l/m 0,00 h 0,00 h 0 W/m 0,0 km/h (0 Bft) 98,58 %
22.08.2019 22:00 18,9 C 16,3 C 15,4 C 70 % 1025,3 hPa 0,0 l/m 0,00 h 0,00 h 0 W/m 0,0 km/h (0 Bft) 97,22 %
22.08.2019 23:00 17,4 C 15,1 C 14,2 C 74 % 1025,5 hPa 0,0 l/m 0,00 h 0,00 h 0 W/m 0,0 km/h (0 Bft) 95,73 %
23.08.2019 00:00 16,3 C 14,0 C 13,5 C 77 % 1025,5 hPa 0,0 l/m 0,00 h 0,00 h 0 W/m 0,0 km/h (0 Bft) 99,41 %
23.08.2019 01:00 15,3 C 13,4 C 12,8 C 80 % 1025,5 hPa 0,0 l/m 0,00 h 0,00 h 0 W/m 0,0 km/h (0 Bft) 97,93 %
23.08.2019 02:00 14,5 C 13,0 C 12,4 C 83 % 1025,6 hPa 0,0 l/m 0,00 h 0,00 h 0 W/m 0,0 km/h (0 Bft) 97,94 %
23.08.2019 03:00 14,0 C 12,5 C 12,0 C 85 % 1025,6 hPa 0,0 l/m 0,00 h 0,00 h 0 W/m 0,0 km/h (0 Bft) 96,30 %
23.08.2019 04:00 13,5 C 11,9 C 11,6 C 87 % 1025,8 hPa 0,0 l/m 0,00 h 0,00 h 0 W/m 0,0 km/h (0 Bft) 98,93 %
23.08.2019 05:00 13,0 C 11,5 C 11,1 C 89 % 1025,7 hPa 0,0 l/m 0,00 h 0,00 h 0 W/m 0,0 km/h (0 Bft) 96,30 %
23.08.2019 06:00 12,6 C 11,2 C 10,7 C 90 % 1025,7 hPa 0,0 l/m 0,00 h 0,00 h 8 W/m 0,0 km/h (0 Bft) 99,70 %
23.08.2019 07:00 12,4 C 11,9 C 11,3 C 91 % 1025,8 hPa 0,0 l/m 0,00 h 0,00 h 24 W/m 0,0 km/h (0 Bft) 96,23 %
23.08.2019 08:00 13,6 C 15,3 C 13,9 C 95 % 1026,0 hPa 0,0 l/m 0,17 h 0,00 h 89 W/m 1,9 km/h (1 Bft) 97,39 %
23.08.2019 09:00 17,2 C 23,5 C 21,6 C 90 % 1026,1 hPa 0,0 l/m 0,97 h 0,00 h 395 W/m 4,9 km/h (1 Bft) 99,13 %
23.08.2019 10:00 21,9 C 27,8 C 28,0 C 73 % 1026,1 hPa 0,0 l/m 1,00 h 0,00 h 573 W/m 3,3 km/h (1 Bft) 94,96 %
23.08.2019 11:00 24,7 C 30,7 C 25,5 C 64 % 1026,1 hPa 0,0 l/m 1,00 h 0,00 h 707 W/m 4,3 km/h (1 Bft) 97,18 %
23.08.2019 12:00 27,0 C 33,3 C 25,1 C 55 % 1025,8 hPa 0,0 l/m 1,00 h 0,00 h 805 W/m 5,7 km/h (1 Bft) 99,19 %
23.08.2019 13:00 28,6 C 34,5 C 28,0 C 49 % 1025,2 hPa 0,0 l/m 1,00 h 0,00 h 856 W/m 6,3 km/h (2 Bft) 96,70 %
23.08.2019 14:00 29,3 C 34,7 C 31,5 C 44 % 1024,8 hPa 0,0 l/m 1,00 h 0,00 h 834 W/m 7,9 km/h (2 Bft) 97,39 %
23.08.2019 15:00 29,4 C 33,4 C 28,1 C 45 % 1024,2 hPa 0,0 l/m 1,00 h 0,00 h 655 W/m 6,4 km/h (2 Bft) 98,79 %
23.08.2019 16:00 29,4 C 33,0 C 29,0 C 47 % 1023,7 hPa 0,0 l/m 1,00 h 0,00 h 551 W/m 4,3 km/h (1 Bft) 96,60 %
23.08.2019 17:00 29,6 C 32,8 C 27,8 C 47 % 1023,3 hPa 0,0 l/m 1,00 h 0,00 h 450 W/m 4,4 km/h (1 Bft) 99,21 %
23.08.2019 18:00 28,9 C 29,3 C 25,0 C 48 % 1022,9 hPa 0,0 l/m 0,73 h 0,00 h 234 W/m 3,5 km/h (1 Bft) 95,87 %
23.08.2019 19:00 26,6 C 24,7 C 23,3 C 51 % 1022,7 hPa 0,0 l/m 0,00 h 0,00 h 44 W/m 2,5 km/h (1 Bft) 97,79 %
23.08.2019 20:00 24,7 C 22,2 C 21,3 C 57 % 1022,8 hPa 0,0 l/m 0,00 h 0,00 h 12 W/m 0,7 km/h (0 Bft) 98,36 %
23.08.2019 21:00 22,8 C 20,4 C 19,6 C 63 % 1022,9 hPa 0,0 l/m 0,00 h 0,00 h 0 W/m 0,7 km/h (0 Bft) 96,65 %
23.08.2019 22:00 21,3 C 19,2 C 18,5 C 67 % 1022,6 hPa 0,0 l/m 0,00 h 0,00 h 0 W/m 0,7 km/h (0 Bft) 96,87 %
23.08.2019 23:00 20,3 C 18,6 C 17,9 C 69 % 1022,5 hPa 0,0 l/m 0,00 h 0,00 h 0 W/m 1,0 km/h (0 Bft) 98,58 %
24.08.2019 00:00 19,6 C 17,8 C 16,9 C 69 % 1022,3 hPa 0,0 l/m 0,00 h 0,00 h 0 W/m 0,3 km/h (0 Bft) 94,20 %
24.08.2019 01:00 18,4 C 16,0 C 15,2 C 72 % 1022,2 hPa 0,0 l/m 0,00 h 0,00 h 0 W/m 0,0 km/h (0 Bft) 96,23 %
24.08.2019 02:00 17,3 C 15,6 C 14,7 C 75 % 1022,1 hPa 0,0 l/m 0,00 h 0,00 h 0 W/m 0,2 km/h (0 Bft) 98,36 %
24.08.2019 03:00 16,5 C 14,4 C 13,6 C 77 % 1021,8 hPa 0,0 l/m 0,00 h 0,00 h 0 W/m 0,0 km/h (0 Bft) 97,01 %
24.08.2019 04:00 15,4 C 13,1 C 12,6 C 80 % 1021,7 hPa 0,0 l/m 0,00 h 0,00 h 0 W/m 0,0 km/h (0 Bft) 99,29 %
24.08.2019 05:00 14,3 C 12,1 C 11,8 C 83 % 1021,5 hPa 0,0 l/m 0,00 h 0,00 h 0 W/m 0,0 km/h (0 Bft) 95,09 %
24.08.2019 06:00 13,4 C 11,7 C 11,1 C 84 % 1021,5 hPa 0,0 l/m 0,00 h 0,00 h 8 W/m 0,0 km/h (0 Bft) 97,51 %
24.08.2019 07:00 12,9 C 12,3 C 11,6 C 88 % 1021,7 hPa 0,0 l/m 0,00 h 0,00 h 22 W/m 0,0 km/h (0 Bft) 97,93 %
24.08.2019 08:00 14,3 C 16,5 C 14,9 C 93 % 1021,8 hPa 0,0 l/m 0,17 h 0,00 h 90 W/m 3,5 km/h (1 Bft) 99,07 %
24.08.2019 09:00 19,0 C 25,0 C 23,4 C 78 % 1021,9 hPa 0,0 l/m 1,00 h 0,00 h 405 W/m 7,8 km/h (2 Bft) 96,65 %
24.08.2019 10:00 23,7 C 28,7 C 29,6 C 60 % 1021,8 hPa 0,0 l/m 1,00 h 0,00 h 585 W/m 10,1 km/h (2 Bft) 97,58 %
24.08.2019 11:00 26,4 C 31,6 C 27,2 C 53 % 1021,5 hPa 0,0 l/m 1,00 h 0,00 h 719 W/m 11,1 km/h (2 Bft) 97,42 %
24.08.2019 12:00 28,8 C 35,0 C 26,9 C 48 % 1021,0 hPa 0,0 l/m 1,00 h 0,00 h 812 W/m 6,3 km/h (2 Bft) 97,46 %
24.08.2019 13:00 30,6 C 35,9 C 29,8 C 45 % 1020,5 hPa 0,0 l/m 1,00 h 0,00 h 851 W/m 9,9 km/h (2 Bft) 97,29 %
24.08.2019 14:00 31,5 C 37,1 C 33,8 C 43 % 1020,0 hPa 0,0 l/m 1,00 h 0,00 h 833 W/m 6,2 km/h (2 Bft) 98,65 %
24.08.2019 15:00 31,7 C 36,0 C 30,6 C 39 % 1019,6 hPa 0,0 l/m 1,00 h 0,00 h 765 W/m 9,7 km/h (2 Bft) 98,29 %
24.08.2019 16:00 32,1 C 36,8 C 31,9 C 41 % 1019,1 hPa 0,0 l/m 1,00 h 0,00 h 646 W/m 5,2 km/h (1 Bft) 96,44 %
24.08.2019 17:00 32,4 C 36,0 C 29,7 C 43 % 1018,7 hPa 0,0 l/m 1,00 h 0,00 h 485 W/m 3,8 km/h (1 Bft) 96,29 %
24.08.2019 18:00 31,4 C 31,9 C 25,9 C 44 % 1018,4 hPa 0,0 l/m 0,70 h 0,00 h 240 W/m 2,0 km/h (1 Bft) 97,75 %
24.08.2019 19:00 29,0 C 26,5 C 22,3 C 51 % 1018,0 hPa 0,0 l/m 0,00 h 0,00 h 38 W/m 0,0 km/h (0 Bft) 96,84 %
24.08.2019 20:00 26,3 C 22,9 C 20,4 C 59 % 1018,1 hPa 0,0 l/m 0,00 h 0,00 h 12 W/m 0,0 km/h (0 Bft) 98,22 %
24.08.2019 21:00 23,2 C 20,0 C 18,2 C 65 % 1018,4 hPa 0,0 l/m 0,00 h 0,00 h 0 W/m 0,0 km/h (0 Bft) 97,44 %
24.08.2019 22:00 21,0 C 18,5 C 17,0 C 69 % 1018,5 hPa 0,0 l/m 0,00 h 0,00 h 0 W/m 0,0 km/h (0 Bft) 96,23 %
24.08.2019 23:00 19,5 C 17,2 C 16,1 C 72 % 1018,6 hPa 0,0 l/m 0,00 h 0,00 h 0 W/m 0,0 km/h (0 Bft) 98,79 %
25.08.2019 00:00 18,3 C 16,1 C 15,3 C 75 % 1018,6 hPa 0,0 l/m 0,00 h 0,00 h 0 W/m 0,0 km/h (0 Bft) 96,72 %
25.08.2019 01:00 17,3 C 15,3 C 14,7 C 77 % 1018,6 hPa 0,0 l/m 0,00 h 0,00 h 0 W/m 0,0 km/h (0 Bft) 96,01 %
25.08.2019 02:00 16,5 C 14,8 C 14,2 C 80 % 1018,4 hPa 0,0 l/m 0,00 h 0,00 h 0 W/m 0,0 km/h (0 Bft) 97,79 %
25.08.2019 03:00 15,9 C 14,4 C 13,9 C 84 % 1018,4 hPa 0,0 l/m 0,00 h 0,00 h 0 W/m 0,0 km/h (0 Bft) 99,43 %
25.08.2019 04:00 15,5 C 13,9 C 13,4 C 86 % 1018,4 hPa 0,0 l/m 0,00 h 0,00 h 0 W/m 0,0 km/h (0 Bft) 95,16 %
25.08.2019 05:00 15,2 C 13,7 C 13,3 C 89 % 1018,3 hPa 0,0 l/m 0,00 h 0,00 h 0 W/m 0,0 km/h (0 Bft) 97,15 %
25.08.2019 06:00 14,8 C 13,3 C 12,8 C 89 % 1018,4 hPa 0,0 l/m 0,00 h 0,00 h 7 W/m 0,0 km/h (0 Bft) 97,83 %
25.08.2019 07:00 14,6 C 14,6 C 13,6 C 91 % 1018,6 hPa 0,0 l/m 0,00 h 0,00 h 24 W/m 0,0 km/h (0 Bft) 97,91 %
25.08.2019 08:00 15,9 C 18,3 C 16,5 C 95 % 1018,9 hPa 0,0 l/m 0,17 h 0,00 h 88 W/m 1,8 km/h (1 Bft) 96,85 %
25.08.2019 09:00 20,6 C 27,0 C 24,2 C 82 % 1019,1 hPa 0,0 l/m 1,00 h 0,00 h 370 W/m 4,6 km/h (1 Bft) 96,63 %
25.08.2019 10:00 25,5 C 31,3 C 30,8 C 68 % 1019,4 hPa 0,0 l/m 1,00 h 0,00 h 537 W/m 2,5 km/h (1 Bft) 98,64 %
25.08.2019 11:00 28,4 C 34,4 C 28,6 C 61 % 1019,2 hPa 0,0 l/m 1,00 h 0,00 h 673 W/m 2,9 km/h (1 Bft) 98,33 %
25.08.2019 12:00 30,5 C 36,2 C 28,6 C 55 % 1019,0 hPa 0,0 l/m 1,00 h 0,00 h 744 W/m 5,2 km/h (1 Bft) 95,56 %
25.08.2019 13:00 32,0 C 38,1 C 31,7 C 50 % 1018,7 hPa 0,0 l/m 1,00 h 0,00 h 803 W/m 5,0 km/h (1 Bft) 99,41 %
25.08.2019 14:00 32,7 C 37,6 C 33,8 C 48 % 1018,4 hPa 0,0 l/m 1,00 h 0,00 h 764 W/m 5,4 km/h (1 Bft) 97,59 %
25.08.2019 15:00 32,8 C 37,1 C 31,3 C 49 % 1018,1 hPa 0,0 l/m 1,00 h 0,00 h 678 W/m 4,9 km/h (1 Bft) 96,51 %
25.08.2019 16:00 33,0 C 37,0 C 32,7 C 50 % 1017,8 hPa 0,0 l/m 1,00 h 0,00 h 594 W/m 2,9 km/h (1 Bft) 96,12 %
25.08.2019 17:00 33,2 C 36,1 C 31,1 C 49 % 1017,8 hPa 0,0 l/m 1,00 h 0,00 h 438 W/m 5,0 km/h (1 Bft) 98,87 %
25.08.2019 18:00 31,9 C 32,1 C 28,1 C 51 % 1017,9 hPa 0,0 l/m 0,67 h 0,00 h 216 W/m 5,2 km/h (1 Bft) 97,75 %
25.08.2019 19:00 29,7 C 27,9 C 26,3 C 55 % 1018,1 hPa 0,0 l/m 0,00 h 0,00 h 58 W/m 4,1 km/h (1 Bft) 97,84 %
25.08.2019 20:00 27,9 C 25,5 C 24,1 C 58 % 1018,5 hPa 0,0 l/m 0,00 h 0,00 h 15 W/m 0,6 km/h (0 Bft) 95,59 %
25.08.2019 21:00 26,1 C 23,9 C 22,5 C 61 % 1018,8 hPa 0,0 l/m 0,00 h 0,00 h 0 W/m 0,5 km/h (0 Bft) 99,00 %
25.08.2019 22:00 24,9 C 23,0 C 21,7 C 63 % 1018,9 hPa 0,0 l/m 0,00 h 0,00 h 0 W/m 0,2 km/h (0 Bft) 98,65 %
25.08.2019 23:00 23,9 C 21,8 C 20,6 C 66 % 1019,0 hPa 0,0 l/m 0,00 h 0,00 h 0 W/m 0,1 km/h (0 Bft) 95,08 %
Min-Datum _ 21.08.19 21.08.19 21.08.19 24.08.19 19.08.19 - - - - 19.08.19 20.08.19
_ Min-Zeit 07:02 06:08 06:08 15:38 07:30 - - - - 20:40 00:02
Minimum _ 10,0 C 8,3 C 8,3 C 37 % 1014,4 hPa - - - - 0,0 km/h (0 Bft) 16,67 %
Max-Datum _ 25.08.19 25.08.19 24.08.19 21.08.19 21.08.19 19.08.19 19.08.19 19.08.19 19.08.19 19.08.19 19.08.19
_ Max-Zeit 17:18 13:24 14:10 08:56 09:50 00:00 18:08 21:26 13:20 14:42 00:12
Maximum _ 33,3 C 38,9 C 38,9 C 97 % 1029,1 hPa 0,0 l/m 0,07 h 0,03 h 1069 W/m 35,4 km/h
O-SO (5 Bft)
100,00 %
Durchschnitt _ 20,2 C 21,0 C 19,1 C 70 % 1022,2 hPa #0,0 l/m #62:46 h #8 min. 392 W/m 5,1 km/h (1 Bft) 97,46 %
© 2019 W. Hausmann